Virginia City Highlands, Nevada
Current Conditions -  °F | °C
As of 5:55 AM on Friday 31 Oct 2014 (Local Time) from KRNO Reporting Station
Scattered Clouds Scattered Clouds  
Wind Chill: 54°   Ceiling: Unl
Heat Index: 54°   Visibility: 10mi
Dew Point: 30°   Wind: 0mph
Humidity: 40%   Direction: NA
Pressure: 29.88"   Gusts: NA
Location:  39.3892°N, 119.693°W
Report Text: KRNO 311255Z 00000KT 10SM SCT150 12/M01 A2988 RMK AO2 SLP082 T01221011
Loading
Personal Weather Stations






























Interactive Weather Map
Tropical Storm Tracking
New forecast layout! Learn more

10-Day Weather Forecast

Advertisements
Track Severe Weather on mobile